createdAt,value
2023-04-08T00:01:42.256Z,86.23
2023-04-08T00:05:03.969Z,86.11
2023-04-08T00:08:25.663Z,85.96
2023-04-08T00:11:48.325Z,85.94
2023-04-08T00:15:10.673Z,85.84
2023-04-08T00:18:32.207Z,85.79
2023-04-08T00:21:54.019Z,85.71
2023-04-08T00:25:16.058Z,85.63
2023-04-08T00:28:39.592Z,85.27
2023-04-08T00:32:00.915Z,85.29
2023-04-08T00:35:22.352Z,85.21
2023-04-08T00:38:43.799Z,85.41
2023-04-08T00:42:05.722Z,85.08
2023-04-08T00:45:28.435Z,85.02
2023-04-08T00:48:50.103Z,85.20
2023-04-08T00:52:11.738Z,85.26
2023-04-08T00:55:33.459Z,85.45
2023-04-08T00:58:55.598Z,85.25
2023-04-08T01:02:26.162Z,85.29
2023-04-08T01:05:57.624Z,85.15
2023-04-08T01:09:22.644Z,85.25
2023-04-08T01:12:51.478Z,84.96
2023-04-08T01:16:17.178Z,85.03
2023-04-08T01:19:44.737Z,84.85
2023-04-08T01:23:14.368Z,85.34
2023-04-08T01:26:38.430Z,85.51
2023-04-08T01:30:02.210Z,85.69
2023-04-08T01:33:28.894Z,85.56
2023-04-08T01:36:52.027Z,85.59
2023-04-08T01:40:14.586Z,85.48
2023-04-08T01:43:39.589Z,85.41
2023-04-08T01:47:02.181Z,85.44
2023-04-08T01:50:24.963Z,85.45
2023-04-08T01:53:46.658Z,85.09
2023-04-08T01:57:12.861Z,85.25
2023-04-08T02:00:37.725Z,85.18
2023-04-08T02:04:00.520Z,85.55
2023-04-08T02:07:22.926Z,85.83
2023-04-08T02:10:44.552Z,85.82
2023-04-08T02:14:06.454Z,85.74
2023-04-08T02:17:36.189Z,85.78
2023-04-08T02:21:03.219Z,85.42
2023-04-08T02:24:25.319Z,85.84
2023-04-08T02:27:48.873Z,85.71
2023-04-08T02:31:13.712Z,85.62
2023-04-08T02:34:41.428Z,85.60
2023-04-08T02:38:03.340Z,85.57
2023-04-08T02:41:24.858Z,85.43
2023-04-08T02:44:46.256Z,85.06
2023-04-08T02:48:08.075Z,85.04
2023-04-08T02:51:30.620Z,84.78
2023-04-08T02:54:51.805Z,84.79
2023-04-08T02:58:13.091Z,84.84
2023-04-08T03:01:34.575Z,85.07
2023-04-08T03:04:56.100Z,85.14
2023-04-08T03:08:19.320Z,85.21
2023-04-08T03:11:40.602Z,85.55
2023-04-08T03:15:03.429Z,85.19
2023-04-08T03:18:25.545Z,85.15
2023-04-08T03:21:47.283Z,85.35
2023-04-08T03:25:11.890Z,85.18
2023-04-08T03:28:33.373Z,84.82
2023-04-08T03:31:55.157Z,84.87
2023-04-08T03:35:17.641Z,84.64
2023-04-08T03:38:38.917Z,85.04
2023-04-08T03:42:03.065Z,84.76
2023-04-08T03:45:24.953Z,84.91
2023-04-08T03:48:46.135Z,84.94
2023-04-08T03:52:07.583Z,84.82
2023-04-08T03:55:29.134Z,84.90
2023-04-08T03:58:52.001Z,84.88
2023-04-08T04:02:13.955Z,84.81
2023-04-08T04:05:35.631Z,84.88
2023-04-08T04:08:57.016Z,85.09
2023-04-08T04:12:18.510Z,85.50
2023-04-08T04:15:41.765Z,85.43
2023-04-08T04:19:03.182Z,85.00
2023-04-08T04:22:24.778Z,85.14
2023-04-08T04:25:46.200Z,84.97
2023-04-08T04:29:07.492Z,85.13
2023-04-08T04:32:30.072Z,84.92
2023-04-08T04:35:52.041Z,85.33
2023-04-08T04:39:13.493Z,85.40
2023-04-08T04:42:34.796Z,85.35
2023-04-08T04:45:57.035Z,85.21
2023-04-08T04:49:20.032Z,85.41
2023-04-08T04:52:41.512Z,85.17
2023-04-08T04:56:03.645Z,85.34
2023-04-08T04:59:25.437Z,85.60
2023-04-08T05:02:47.455Z,85.38
2023-04-08T05:06:11.793Z,85.14
2023-04-08T05:09:33.418Z,85.14
2023-04-08T05:12:54.657Z,85.28
2023-04-08T05:16:16.609Z,85.65
2023-04-08T05:19:38.157Z,85.44
2023-04-08T05:23:00.737Z,85.57
2023-04-08T05:26:22.876Z,85.66
2023-04-08T05:29:44.488Z,85.54
2023-04-08T05:33:05.942Z,85.73
2023-04-08T05:36:27.442Z,85.80
2023-04-08T05:39:50.683Z,85.64
2023-04-08T05:43:12.305Z,85.89
2023-04-08T05:46:34.078Z,85.95
2023-04-08T05:49:55.683Z,85.91
2023-04-08T05:53:17.000Z,86.10
2023-04-08T05:56:40.609Z,86.17
2023-04-08T06:00:02.456Z,85.99
2023-04-08T06:03:28.056Z,86.24
2023-04-08T06:06:50.076Z,86.23
2023-04-08T06:10:11.867Z,86.13
2023-04-08T06:13:34.830Z,86.47
2023-04-08T06:16:57.341Z,86.30
2023-04-08T06:20:18.835Z,85.91
2023-04-08T06:23:40.474Z,85.98
2023-04-08T06:27:01.844Z,85.95
2023-04-08T06:30:25.411Z,85.71
2023-04-08T06:33:46.951Z,85.97
2023-04-08T06:37:08.828Z,86.10
2023-04-08T06:40:30.717Z,86.67
2023-04-08T06:43:52.203Z,86.58
2023-04-08T06:47:17.008Z,86.58
2023-04-08T06:50:38.226Z,86.26
2023-04-08T06:54:00.028Z,86.50
2023-04-08T06:57:21.754Z,86.57
2023-04-08T07:00:43.779Z,87.16
2023-04-08T07:04:06.435Z,87.07
2023-04-08T07:07:28.339Z,87.22
2023-04-08T07:10:49.828Z,86.98
2023-04-08T07:14:11.744Z,87.22
2023-04-08T07:17:34.025Z,87.02
2023-04-08T07:20:57.925Z,86.85
2023-04-08T07:24:19.176Z,86.70
2023-04-08T07:27:40.550Z,86.46
2023-04-08T07:31:11.672Z,86.79
2023-04-08T07:34:33.366Z,86.87
2023-04-08T07:37:57.769Z,87.04
2023-04-08T07:41:18.904Z,86.90
2023-04-08T07:44:39.994Z,86.15
2023-04-08T07:48:01.966Z,86.70
2023-04-08T07:51:23.565Z,86.69
2023-04-08T07:54:46.684Z,86.03
2023-04-08T07:58:07.995Z,86.36
2023-04-08T08:01:31.262Z,86.20
2023-04-08T08:04:53.107Z,86.06
2023-04-08T08:08:14.783Z,86.10
2023-04-08T08:11:37.545Z,85.65
2023-04-08T08:14:59.607Z,86.32
2023-04-08T08:18:21.076Z,86.26
2023-04-08T08:21:42.334Z,85.85
2023-04-08T08:25:04.585Z,86.06
2023-04-08T08:28:27.430Z,85.97
2023-04-08T08:31:49.243Z,86.29
2023-04-08T08:35:10.946Z,85.70
2023-04-08T08:38:32.704Z,85.64
2023-04-08T08:41:54.275Z,85.18
2023-04-08T08:45:17.803Z,85.30
2023-04-08T08:48:40.738Z,85.05
2023-04-08T08:52:02.511Z,85.13
2023-04-08T08:58:49.226Z,84.51
2023-04-08T09:02:25.419Z,84.48
2023-04-08T09:05:54.103Z,84.85
2023-04-08T09:09:16.052Z,84.89
2023-04-08T09:12:55.412Z,84.88
2023-04-08T09:16:18.890Z,84.58
2023-04-08T09:20:02.071Z,84.33
2023-04-08T09:27:42.430Z,84.36
2023-04-08T09:31:19.838Z,83.92
2023-04-08T09:34:43.013Z,83.19
2023-04-08T09:38:04.470Z,83.49
2023-04-08T09:41:29.882Z,82.92
2023-04-08T09:44:51.808Z,82.69
2023-04-08T09:48:18.512Z,82.49
2023-04-08T09:51:49.863Z,82.92
2023-04-08T09:55:13.593Z,83.07
2023-04-08T09:58:42.861Z,83.21
2023-04-08T10:02:08.881Z,82.34
2023-04-08T10:05:32.215Z,81.50
2023-04-08T10:08:55.374Z,81.72
2023-04-08T10:12:16.556Z,81.57
2023-04-08T10:15:40.893Z,81.29
2023-04-08T10:19:02.691Z,81.14
2023-04-08T10:22:49.921Z,80.25
2023-04-08T10:26:33.570Z,79.83
2023-04-08T10:29:55.014Z,79.99
2023-04-08T10:33:18.318Z,79.85
2023-04-08T10:36:40.069Z,78.46
2023-04-08T10:40:01.794Z,78.34
2023-04-08T10:43:24.456Z,78.32
2023-04-08T10:46:46.811Z,77.79
2023-04-08T10:50:14.856Z,78.16
2023-04-08T10:53:37.775Z,78.02
2023-04-08T10:56:59.935Z,77.85
2023-04-08T11:00:35.698Z,77.11
2023-04-08T11:03:57.595Z,76.67
2023-04-08T11:07:21.713Z,76.21
2023-04-08T11:10:45.075Z,74.38
2023-04-08T11:14:07.398Z,74.62
2023-04-08T11:17:31.564Z,72.63
2023-04-08T11:20:53.845Z,72.37
2023-04-08T11:24:16.483Z,71.70
2023-04-08T11:27:39.567Z,72.22
2023-04-08T11:31:01.274Z,72.52
2023-04-08T11:34:26.270Z,72.21
2023-04-08T11:37:49.839Z,70.89
2023-04-08T11:41:12.528Z,70.44
2023-04-08T11:44:34.546Z,70.96
2023-04-08T11:47:56.179Z,70.89
2023-04-08T11:51:18.976Z,70.47
2023-04-08T11:54:43.277Z,70.22
2023-04-08T11:58:07.591Z,70.24
2023-04-08T12:01:29.291Z,68.95
2023-04-08T12:04:51.132Z,68.58
2023-04-08T12:08:14.173Z,68.27
2023-04-08T12:11:35.940Z,68.59
2023-04-08T12:14:57.653Z,67.60
2023-04-08T12:18:19.159Z,68.76
2023-04-08T12:21:40.836Z,68.05
2023-04-08T12:25:04.250Z,67.76
2023-04-08T12:28:25.849Z,65.54
2023-04-08T12:31:47.277Z,63.56
2023-04-08T12:35:10.092Z,63.29
2023-04-08T12:38:31.557Z,62.75
2023-04-08T12:41:54.486Z,63.87
2023-04-08T12:45:16.241Z,65.50
2023-04-08T12:48:37.998Z,64.05
2023-04-08T12:52:00.010Z,63.44
2023-04-08T12:55:24.914Z,63.69
2023-04-08T12:58:47.737Z,63.13
2023-04-08T13:02:09.293Z,62.25
2023-04-08T13:05:42.876Z,62.03
2023-04-08T13:09:05.413Z,62.70
2023-04-08T13:12:27.217Z,61.12
2023-04-08T13:15:50.867Z,61.10
2023-04-08T13:19:12.711Z,61.58
2023-04-08T13:22:34.563Z,59.63
2023-04-08T13:25:56.226Z,59.78
2023-04-08T13:29:17.519Z,59.61
2023-04-08T13:32:40.750Z,60.12
2023-04-08T13:36:02.393Z,59.66
2023-04-08T13:39:23.620Z,59.24
2023-04-08T13:42:45.747Z,59.62
2023-04-08T13:46:08.105Z,58.19
2023-04-08T13:49:31.569Z,58.82
2023-04-08T13:52:53.153Z,58.15
2023-04-08T13:56:14.416Z,58.34
2023-04-08T13:59:36.032Z,58.16
2023-04-08T14:02:57.749Z,58.85
2023-04-08T14:06:20.536Z,59.07
2023-04-08T14:09:41.843Z,58.32
2023-04-08T14:13:03.628Z,58.78
2023-04-08T14:16:25.037Z,59.14
2023-04-08T14:19:46.807Z,58.78
2023-04-08T14:23:09.660Z,58.24
2023-04-08T14:26:33.180Z,57.56
2023-04-08T14:29:54.889Z,58.42
2023-04-08T14:33:16.298Z,58.25
2023-04-08T14:36:38.541Z,57.42
2023-04-08T14:40:01.143Z,57.44
2023-04-08T14:43:22.538Z,57.19
2023-04-08T14:46:43.909Z,58.13
2023-04-08T14:50:06.609Z,57.37
2023-04-08T14:53:28.126Z,57.74
2023-04-08T14:56:51.394Z,58.11
2023-04-08T15:00:14.301Z,58.20
2023-04-08T15:03:36.115Z,58.81
2023-04-08T15:06:57.831Z,58.92
2023-04-08T15:10:19.683Z,59.03
2023-04-08T15:13:43.153Z,58.90
2023-04-08T15:17:04.904Z,58.63
2023-04-08T15:20:26.497Z,58.75
2023-04-08T15:23:47.824Z,57.67
2023-04-08T15:27:09.405Z,58.13
2023-04-08T15:30:35.396Z,57.21
2023-04-08T15:33:58.508Z,57.08
2023-04-08T15:37:20.347Z,57.14
2023-04-08T15:40:43.378Z,56.30
2023-04-08T15:44:04.656Z,54.84
2023-04-08T15:47:27.532Z,55.75
2023-04-08T15:50:50.458Z,55.17
2023-04-08T15:54:12.291Z,56.48
2023-04-08T15:57:36.022Z,56.51
2023-04-08T16:00:57.777Z,56.50
2023-04-08T16:04:20.537Z,57.06
2023-04-08T16:07:43.109Z,56.51
2023-04-08T16:11:08.055Z,57.44
2023-04-08T16:14:30.767Z,57.15
2023-04-08T16:17:53.558Z,57.31
2023-04-08T16:21:17.245Z,57.67
2023-04-08T16:24:38.876Z,58.11
2023-04-08T16:28:00.494Z,57.79
2023-04-08T16:31:22.306Z,57.95
2023-04-08T16:34:43.734Z,57.49
2023-04-08T16:38:06.537Z,57.86
2023-04-08T16:41:28.133Z,57.84
2023-04-08T16:44:49.921Z,58.04
2023-04-08T16:48:12.639Z,58.04
2023-04-08T16:51:34.381Z,58.44
2023-04-08T16:54:57.687Z,58.66
2023-04-08T16:58:19.793Z,59.28
2023-04-08T17:01:41.702Z,60.20
2023-04-08T17:05:03.383Z,60.11
2023-04-08T17:08:25.968Z,60.81
2023-04-08T17:11:48.576Z,61.62
2023-04-08T17:15:11.452Z,62.26
2023-04-08T17:18:33.255Z,62.47
2023-04-08T17:21:55.039Z,62.73
2023-04-08T17:25:16.586Z,63.58
2023-04-08T17:28:39.872Z,64.16
2023-04-08T17:32:01.679Z,64.38
2023-04-08T17:35:23.030Z,64.43
2023-04-08T17:38:44.311Z,64.37
2023-04-08T17:42:05.960Z,65.04
2023-04-08T17:45:28.917Z,65.67
2023-04-08T17:48:50.355Z,66.34
2023-04-08T17:52:12.113Z,66.24
2023-04-08T17:55:33.454Z,66.31
2023-04-08T17:58:54.753Z,67.39
2023-04-08T18:02:17.923Z,67.68
2023-04-08T18:05:39.173Z,67.55
2023-04-08T18:09:00.908Z,67.66
2023-04-08T18:12:22.793Z,67.66
2023-04-08T18:15:44.411Z,68.48
2023-04-08T18:19:07.114Z,69.91
2023-04-08T18:22:28.894Z,69.81
2023-04-08T18:25:50.858Z,69.86
2023-04-08T18:29:12.463Z,70.24
2023-04-08T18:32:34.410Z,70.52
2023-04-08T18:35:59.552Z,70.81
2023-04-08T18:39:22.602Z,70.71
2023-04-08T18:42:44.111Z,70.34
2023-04-08T18:46:05.787Z,70.81
2023-04-08T18:49:30.224Z,71.45
2023-04-08T18:52:54.054Z,71.10
2023-04-08T18:56:16.081Z,70.99
2023-04-08T18:59:37.770Z,71.77
2023-04-08T19:02:59.427Z,71.17
2023-04-08T19:06:22.564Z,71.34
2023-04-08T19:09:45.589Z,70.96
2023-04-08T19:13:06.864Z,71.46
2023-04-08T19:16:28.413Z,71.57
2023-04-08T19:19:49.957Z,71.46
2023-04-08T19:23:11.190Z,71.61
2023-04-08T19:26:34.715Z,70.93
2023-04-08T19:29:56.251Z,71.80
2023-04-08T19:33:17.457Z,72.00
2023-04-08T19:36:38.862Z,71.61
2023-04-08T19:40:00.601Z,72.04
2023-04-08T19:43:23.572Z,72.07
2023-04-08T19:46:45.037Z,72.49
2023-04-08T19:50:08.439Z,72.44
2023-04-08T19:53:30.636Z,72.28
2023-04-08T19:56:52.088Z,72.43
2023-04-08T20:00:15.551Z,72.73
2023-04-08T20:03:37.367Z,72.92
2023-04-08T20:06:58.731Z,73.17
2023-04-08T20:10:20.619Z,73.24
2023-04-08T20:13:42.373Z,73.71
2023-04-08T20:17:05.917Z,73.96
2023-04-08T20:20:29.912Z,73.97
2023-04-08T20:23:52.035Z,74.01
2023-04-08T20:27:13.408Z,74.00
2023-04-08T20:30:34.820Z,74.19
2023-04-08T20:33:58.125Z,74.45
2023-04-08T20:37:19.632Z,74.84
2023-04-08T20:40:43.904Z,74.65
2023-04-08T20:44:08.557Z,74.86
2023-04-08T20:47:30.193Z,74.91
2023-04-08T20:50:52.831Z,75.02
2023-04-08T20:54:14.547Z,75.12
2023-04-08T20:57:35.857Z,75.30
2023-04-08T21:00:58.993Z,75.49
2023-04-08T21:04:20.940Z,75.64
2023-04-08T21:07:44.728Z,75.50
2023-04-08T21:11:06.642Z,75.73
2023-04-08T21:14:30.967Z,75.82
2023-04-08T21:17:52.803Z,75.74
2023-04-08T21:21:14.033Z,75.90
2023-04-08T21:24:36.697Z,76.03
2023-04-08T21:27:58.457Z,75.97
2023-04-08T21:31:20.178Z,75.72
2023-04-08T21:34:41.920Z,75.73
2023-04-08T21:38:03.782Z,75.42
2023-04-08T21:41:28.422Z,75.86
2023-04-08T21:44:52.108Z,75.89
2023-04-08T21:48:14.280Z,75.84
2023-04-08T21:51:35.879Z,76.02
2023-04-08T21:54:57.772Z,76.17
2023-04-08T21:58:20.871Z,76.10
2023-04-08T22:01:42.556Z,76.26
2023-04-08T22:05:04.280Z,76.33
2023-04-08T22:08:26.192Z,76.54
2023-04-08T22:11:47.794Z,76.77
2023-04-08T22:15:11.696Z,77.65
2023-04-08T22:18:32.956Z,77.47
2023-04-08T22:21:54.693Z,77.94
2023-04-08T22:25:16.163Z,77.91
2023-04-08T22:28:37.662Z,78.05
2023-04-08T22:32:00.382Z,78.14
2023-04-08T22:35:21.683Z,78.50
2023-04-08T22:38:43.526Z,78.68
2023-04-08T22:42:05.411Z,78.76
2023-04-08T22:45:27.087Z,78.51
2023-04-08T22:48:50.361Z,78.62
2023-04-08T22:52:12.352Z,78.89
2023-04-08T22:55:34.238Z,78.81
2023-04-08T22:58:56.028Z,79.17
2023-04-08T23:02:17.669Z,79.12
2023-04-08T23:05:40.933Z,78.99
2023-04-08T23:09:02.799Z,79.16
2023-04-08T23:12:24.580Z,79.37
2023-04-08T23:15:46.521Z,79.42
2023-04-08T23:19:07.756Z,79.88
2023-04-08T23:22:30.920Z,80.08
2023-04-08T23:25:55.570Z,79.74
2023-04-08T23:29:17.817Z,80.08
2023-04-08T23:32:39.254Z,79.62
2023-04-08T23:36:00.652Z,80.33
2023-04-08T23:39:24.493Z,80.28
2023-04-08T23:42:46.201Z,79.90
2023-04-08T23:46:07.852Z,80.22
2023-04-08T23:49:29.899Z,80.08
2023-04-08T23:52:51.227Z,80.09
2023-04-08T23:56:13.870Z,80.63
2023-04-08T23:59:35.289Z,80.01
